createdAt,value
2019-04-14T00:02:03.178Z,0.02
2019-04-14T00:04:31.265Z,0.03
2019-04-14T00:06:59.200Z,0.04
2019-04-14T00:09:27.301Z,0.06
2019-04-14T00:11:54.925Z,0.05
2019-04-14T00:14:22.894Z,0.04
2019-04-14T00:16:51.034Z,0.05
2019-04-14T00:19:18.065Z,0.06
2019-04-14T00:21:45.532Z,0.07
2019-04-14T00:24:13.849Z,0.09
2019-04-14T00:26:42.270Z,0.10
2019-04-14T00:29:10.908Z,0.10
2019-04-14T00:31:38.906Z,0.11
2019-04-14T00:34:07.139Z,0.10
2019-04-14T00:36:34.815Z,0.12
2019-04-14T00:39:03.124Z,0.11
2019-04-14T00:41:41.332Z,0.12
2019-04-14T00:44:01.349Z,0.13
2019-04-14T00:46:31.226Z,0.14
2019-04-14T00:48:58.200Z,0.15
2019-04-14T00:51:26.531Z,0.15
2019-04-14T00:53:53.897Z,0.14
2019-04-14T00:56:21.489Z,0.11
2019-04-14T00:58:49.697Z,0.11
2019-04-14T01:01:17.556Z,0.12
2019-04-14T01:03:45.877Z,0.12
2019-04-14T01:06:14.329Z,0.14
2019-04-14T01:08:42.436Z,0.14
2019-04-14T01:11:09.662Z,0.15
2019-04-14T01:13:37.538Z,0.16
2019-04-14T01:16:11.571Z,0.15
2019-04-14T01:18:34.094Z,0.14
2019-04-14T01:21:02.519Z,0.14
2019-04-14T01:23:30.496Z,0.13
2019-04-14T01:25:58.466Z,0.12
2019-04-14T01:28:26.575Z,0.15
2019-04-14T01:30:54.471Z,0.13
2019-04-14T01:33:22.833Z,0.12
2019-04-14T01:35:50.988Z,0.10
2019-04-14T01:38:19.009Z,0.09
2019-04-14T01:40:46.684Z,0.09
2019-04-14T01:43:14.629Z,0.07
2019-04-14T01:45:42.521Z,0.12
2019-04-14T01:48:10.545Z,0.09
2019-04-14T01:50:38.592Z,0.08
2019-04-14T01:53:09.693Z,0.05
2019-04-14T01:55:37.332Z,0.07
2019-04-14T01:58:05.368Z,0.07
2019-04-14T02:00:33.725Z,0.14
2019-04-14T02:03:01.866Z,0.10
2019-04-14T02:05:29.984Z,0.08
2019-04-14T02:07:58.016Z,0.05
2019-04-14T02:10:25.923Z,0.06
2019-04-14T02:12:54.240Z,0.04
2019-04-14T02:15:22.273Z,0.06
2019-04-14T02:17:50.256Z,0.07
2019-04-14T02:20:18.585Z,0.06
2019-04-14T02:22:46.338Z,0.11
2019-04-14T02:25:14.268Z,0.12
2019-04-14T02:27:41.342Z,0.09
2019-04-14T02:30:10.151Z,0.08
2019-04-14T02:33:05.449Z,0.10
2019-04-14T02:35:40.864Z,0.10
2019-04-14T02:38:14.500Z,0.09
2019-04-14T02:40:37.085Z,0.09
2019-04-14T02:42:52.234Z,0.08
2019-04-14T02:45:35.332Z,0.09
2019-04-14T02:48:02.505Z,0.11
2019-04-14T02:52:53.702Z,0.13
2019-04-14T02:55:19.057Z,0.12
2019-04-14T02:57:52.913Z,0.12
2019-04-14T03:00:23.945Z,0.12
2019-04-14T03:02:48.685Z,0.15
2019-04-14T03:05:16.342Z,0.17
2019-04-14T03:07:45.924Z,0.17
2019-04-14T03:10:17.923Z,0.19
2019-04-14T03:15:20.147Z,0.18
2019-04-14T03:17:58.270Z,0.18
2019-04-14T03:20:24.549Z,0.18
2019-04-14T03:22:42.234Z,0.20
2019-04-14T03:24:55.117Z,0.22
2019-04-14T03:30:16.548Z,0.21
2019-04-14T03:33:14.014Z,0.21
2019-04-14T03:35:35.538Z,0.21
2019-04-14T03:37:46.837Z,0.19
2019-04-14T03:40:01.610Z,0.19
2019-04-14T03:42:37.695Z,0.17
2019-04-14T03:45:11.103Z,0.17
2019-04-14T03:47:25.090Z,0.16
2019-04-14T03:50:00.926Z,0.14
2019-04-14T03:52:31.626Z,0.13
2019-04-14T03:54:51.015Z,0.08
2019-04-14T03:57:00.179Z,0.09
2019-04-14T03:59:28.193Z,0.10
2019-04-14T04:01:56.608Z,0.10
2019-04-14T04:04:25.052Z,0.08
2019-04-14T04:06:53.506Z,0.07
2019-04-14T04:09:21.457Z,0.08
2019-04-14T04:11:49.743Z,0.07
2019-04-14T04:14:18.067Z,0.07
2019-04-14T04:16:46.189Z,0.05
2019-04-14T04:19:15.489Z,0.07
2019-04-14T04:21:42.673Z,0.07
2019-04-14T04:24:10.728Z,0.04
2019-04-14T04:26:38.639Z,0.03
2019-04-14T04:29:06.888Z,0.01
2019-04-14T04:31:35.038Z,-0.01
2019-04-14T04:34:03.413Z,0.00
2019-04-14T04:36:31.284Z,0.01
2019-04-14T04:38:59.625Z,0.00
2019-04-14T04:41:27.557Z,-0.04
2019-04-14T04:43:56.039Z,-0.06
2019-04-14T04:46:24.324Z,-0.04
2019-04-14T04:49:03.182Z,-0.04
2019-04-14T04:51:20.355Z,-0.02
2019-04-14T04:53:48.356Z,0.00
2019-04-14T04:56:16.895Z,0.04
2019-04-14T04:58:44.224Z,0.04
2019-04-14T05:01:12.403Z,0.04
2019-04-14T05:03:40.720Z,0.05
2019-04-14T05:06:09.155Z,0.06
2019-04-14T05:08:36.993Z,0.07
2019-04-14T05:11:05.363Z,0.08
2019-04-14T05:13:33.473Z,0.10
2019-04-14T05:16:00.629Z,0.14
2019-04-14T05:18:28.979Z,0.15
2019-04-14T05:20:57.331Z,0.17
2019-04-14T05:23:25.536Z,0.21
2019-04-14T05:25:53.770Z,0.28
2019-04-14T05:28:22.080Z,0.33
2019-04-14T05:30:50.278Z,0.35
2019-04-14T05:33:18.571Z,0.37
2019-04-14T05:35:46.684Z,0.40
2019-04-14T05:38:14.718Z,0.44
2019-04-14T05:40:42.911Z,0.53
2019-04-14T05:43:11.343Z,0.62
2019-04-14T05:45:39.601Z,0.76
2019-04-14T05:48:07.469Z,0.89
2019-04-14T05:50:35.733Z,1.02
2019-04-14T05:53:04.266Z,1.16
2019-04-14T05:55:32.777Z,1.34
2019-04-14T05:57:59.856Z,1.50
2019-04-14T06:00:27.806Z,1.56
2019-04-14T06:02:55.193Z,1.80
2019-04-14T06:05:23.261Z,1.90
2019-04-14T06:07:50.756Z,2.05
2019-04-14T06:10:17.796Z,2.28
2019-04-14T06:12:44.851Z,2.63
2019-04-14T06:15:11.893Z,2.69
2019-04-14T06:17:39.251Z,2.69
2019-04-14T06:20:06.604Z,2.96
2019-04-14T06:22:33.977Z,3.63
2019-04-14T06:25:01.026Z,3.93
2019-04-14T06:27:29.247Z,4.37
2019-04-14T06:29:56.639Z,5.19
2019-04-14T06:32:23.689Z,6.04
2019-04-14T06:34:51.554Z,6.88
2019-04-14T06:37:18.921Z,7.39
2019-04-14T06:39:46.266Z,7.66
2019-04-14T06:42:13.319Z,7.45
2019-04-14T06:44:40.686Z,7.30
2019-04-14T06:47:08.011Z,7.20
2019-04-14T06:49:35.399Z,7.55
2019-04-14T06:52:02.715Z,8.02
2019-04-14T06:54:29.745Z,8.46
2019-04-14T06:56:56.802Z,8.54
2019-04-14T06:59:23.836Z,8.53
2019-04-14T07:01:50.886Z,9.08
2019-04-14T07:04:17.931Z,9.44
2019-04-14T07:06:46.355Z,9.77
2019-04-14T07:09:13.733Z,9.32
2019-04-14T07:11:40.770Z,9.14
2019-04-14T07:14:08.129Z,9.00
2019-04-14T07:16:35.162Z,9.06
2019-04-14T07:19:02.222Z,9.22
2019-04-14T07:21:29.583Z,9.27
2019-04-14T07:23:56.882Z,9.27
2019-04-14T07:26:24.273Z,9.69
2019-04-14T07:28:56.882Z,10.25
2019-04-14T07:31:20.062Z,11.34
2019-04-14T07:33:47.179Z,11.86
2019-04-14T07:36:14.611Z,11.55
2019-04-14T07:38:41.971Z,12.10
2019-04-14T07:41:09.016Z,12.09
2019-04-14T07:43:36.392Z,11.55
2019-04-14T07:46:03.670Z,11.27
2019-04-14T07:48:30.727Z,10.79
2019-04-14T07:50:58.131Z,10.79
2019-04-14T07:53:25.193Z,10.53
2019-04-14T07:55:52.242Z,10.40
2019-04-14T07:58:19.299Z,10.25
2019-04-14T08:00:46.353Z,9.96
2019-04-14T08:03:13.404Z,9.53
2019-04-14T08:05:40.442Z,9.56
2019-04-14T08:08:07.494Z,9.01
2019-04-14T08:10:34.539Z,8.12
2019-04-14T08:13:01.887Z,7.68
2019-04-14T08:15:28.920Z,7.44
2019-04-14T08:17:56.275Z,7.62
2019-04-14T08:20:27.643Z,7.73
2019-04-14T08:22:52.066Z,7.21
2019-04-14T08:25:19.461Z,7.26
2019-04-14T08:27:46.739Z,7.43
2019-04-14T08:30:13.791Z,7.43
2019-04-14T08:32:40.841Z,7.30
2019-04-14T08:35:08.167Z,7.26
2019-04-14T08:37:35.213Z,7.27
2019-04-14T08:40:02.631Z,7.04
2019-04-14T08:42:29.885Z,6.64
2019-04-14T08:44:57.298Z,6.24
2019-04-14T08:47:24.634Z,6.19
2019-04-14T08:49:51.990Z,6.45
2019-04-14T08:52:19.261Z,7.10
2019-04-14T08:54:46.316Z,7.91
2019-04-14T08:57:13.364Z,8.40
2019-04-14T08:59:40.414Z,8.55
2019-04-14T09:02:07.463Z,8.30
2019-04-14T09:04:34.515Z,8.27
2019-04-14T09:07:01.550Z,8.27
2019-04-14T09:09:28.599Z,8.13
2019-04-14T09:11:55.643Z,8.04
2019-04-14T09:14:22.979Z,8.20
2019-04-14T09:16:51.085Z,8.65
2019-04-14T09:19:18.406Z,9.29
2019-04-14T09:21:45.453Z,9.44
2019-04-14T09:24:12.826Z,9.38
2019-04-14T09:26:39.869Z,9.73
2019-04-14T09:29:07.232Z,10.30
2019-04-14T09:31:34.572Z,10.94
2019-04-14T09:34:01.641Z,11.13
2019-04-14T09:36:28.680Z,11.01
2019-04-14T09:38:55.726Z,11.22
2019-04-14T09:41:22.789Z,11.77
2019-04-14T09:43:50.093Z,12.40
2019-04-14T09:46:17.144Z,13.00
2019-04-14T09:48:44.184Z,12.78
2019-04-14T09:51:11.244Z,12.78
2019-04-14T09:53:38.291Z,12.89
2019-04-14T09:56:05.660Z,13.29
2019-04-14T09:58:32.698Z,13.33
2019-04-14T10:00:59.835Z,14.70
2019-04-14T10:03:27.232Z,15.41
2019-04-14T10:05:54.571Z,16.50
2019-04-14T10:08:22.048Z,16.10
2019-04-14T10:10:49.499Z,16.76
2019-04-14T10:13:17.613Z,17.63
2019-04-14T10:15:44.672Z,18.04
2019-04-14T10:18:12.162Z,17.21
2019-04-14T10:20:39.518Z,16.04
2019-04-14T10:23:06.564Z,15.16
2019-04-14T10:25:33.940Z,14.74
2019-04-14T10:28:00.982Z,14.09
2019-04-14T10:30:28.343Z,13.31
2019-04-14T10:32:55.393Z,12.96
2019-04-14T10:35:22.745Z,13.27
2019-04-14T10:37:50.096Z,13.02
2019-04-14T10:40:17.151Z,14.02
2019-04-14T10:42:44.194Z,13.84
2019-04-14T10:45:11.257Z,13.97
2019-04-14T10:47:38.300Z,13.09
2019-04-14T10:50:05.633Z,11.99
2019-04-14T10:52:32.987Z,11.11
2019-04-14T10:55:00.048Z,11.01
2019-04-14T10:57:27.096Z,11.24
2019-04-14T10:59:54.439Z,11.15
2019-04-14T11:02:21.793Z,10.88
2019-04-14T11:04:48.846Z,11.19
2019-04-14T11:07:15.886Z,11.45
2019-04-14T11:09:43.250Z,12.63
2019-04-14T11:12:10.598Z,13.04
2019-04-14T11:14:37.644Z,13.15
2019-04-14T11:17:05.000Z,12.85
2019-04-14T11:19:32.055Z,12.87
2019-04-14T11:21:59.420Z,13.15
2019-04-14T11:24:26.458Z,12.52
2019-04-14T11:26:53.515Z,11.48
2019-04-14T11:29:20.872Z,10.93
2019-04-14T11:31:47.933Z,10.83
2019-04-14T11:34:15.276Z,10.81
2019-04-14T11:36:42.338Z,11.70
2019-04-14T11:39:09.671Z,12.18
2019-04-14T11:41:37.421Z,12.71
2019-04-14T11:44:04.469Z,12.86
2019-04-14T11:46:31.828Z,13.16
2019-04-14T11:48:59.200Z,13.49
2019-04-14T11:51:26.260Z,12.22
2019-04-14T11:53:53.586Z,11.74
2019-04-14T11:56:20.901Z,11.92
2019-04-14T11:58:47.943Z,11.91
2019-04-14T12:01:15.343Z,11.75
2019-04-14T12:03:42.722Z,11.38
2019-04-14T12:06:09.775Z,11.55
2019-04-14T12:08:36.823Z,11.02
2019-04-14T12:11:04.152Z,10.63
2019-04-14T12:13:31.506Z,10.59
2019-04-14T12:15:58.555Z,10.61
2019-04-14T12:18:25.604Z,10.90
2019-04-14T12:20:52.673Z,11.27
2019-04-14T12:23:19.711Z,11.72
2019-04-14T12:25:46.753Z,12.04
2019-04-14T12:28:14.884Z,12.14
2019-04-14T12:30:42.176Z,12.39
2019-04-14T12:33:09.226Z,12.54
2019-04-14T12:35:36.590Z,12.98
2019-04-14T12:38:03.929Z,13.95
2019-04-14T12:40:30.973Z,12.96
2019-04-14T12:42:58.029Z,13.40
2019-04-14T12:45:25.382Z,14.30
2019-04-14T12:47:52.449Z,13.31
2019-04-14T12:50:19.484Z,12.24
2019-04-14T12:52:46.846Z,11.74
2019-04-14T12:55:13.889Z,11.19
2019-04-14T12:57:41.233Z,11.42
2019-04-14T13:00:08.619Z,11.65
2019-04-14T13:02:35.665Z,11.49
2019-04-14T13:05:02.697Z,11.85
2019-04-14T13:07:29.761Z,11.52
2019-04-14T13:09:57.086Z,11.16
2019-04-14T13:12:24.463Z,10.81
2019-04-14T13:14:51.746Z,10.24
2019-04-14T13:17:18.800Z,10.07
2019-04-14T13:19:45.847Z,10.14
2019-04-14T13:22:13.262Z,10.17
2019-04-14T13:24:40.302Z,9.57
2019-04-14T13:27:07.356Z,9.37
2019-04-14T13:29:34.737Z,9.61
2019-04-14T13:32:45.522Z,9.59
2019-04-14T13:35:12.844Z,9.49
2019-04-14T13:37:40.156Z,9.42
2019-04-14T13:40:07.532Z,9.44
2019-04-14T13:42:34.891Z,9.48
2019-04-14T13:45:02.267Z,9.60
2019-04-14T13:47:30.496Z,10.14
2019-04-14T13:49:57.536Z,10.33
2019-04-14T13:52:24.931Z,10.33
2019-04-14T13:54:52.240Z,10.12
2019-04-14T13:57:19.308Z,10.39
2019-04-14T13:59:46.350Z,10.04
2019-04-14T14:02:13.410Z,10.09
2019-04-14T14:04:40.780Z,10.13
2019-04-14T14:07:07.850Z,9.73
2019-04-14T14:09:35.183Z,10.00
2019-04-14T14:12:02.222Z,9.96
2019-04-14T14:14:29.589Z,10.38
2019-04-14T14:16:56.944Z,10.66
2019-04-14T14:19:23.989Z,10.22
2019-04-14T14:21:51.376Z,9.81
2019-04-14T14:24:18.395Z,9.32
2019-04-14T14:26:45.765Z,9.35
2019-04-14T14:29:13.885Z,9.70
2019-04-14T14:31:40.922Z,9.52
2019-04-14T14:34:07.982Z,9.77
2019-04-14T14:36:35.018Z,9.67
2019-04-14T14:39:02.420Z,9.70
2019-04-14T14:41:31.077Z,8.92
2019-04-14T14:43:58.131Z,8.20
2019-04-14T14:46:25.167Z,8.13
2019-04-14T14:48:52.228Z,8.18
2019-04-14T14:51:19.605Z,8.11
2019-04-14T14:53:46.654Z,8.08
2019-04-14T14:56:13.702Z,8.10
2019-04-14T14:58:40.750Z,8.29
2019-04-14T15:01:08.123Z,8.17
2019-04-14T15:03:35.459Z,8.22
2019-04-14T15:06:02.815Z,8.68
2019-04-14T15:08:29.875Z,8.83
2019-04-14T15:10:56.910Z,8.86
2019-04-14T15:13:23.958Z,8.33
2019-04-14T15:15:50.994Z,7.92
2019-04-14T15:18:18.041Z,7.70
2019-04-14T15:20:45.082Z,7.74
2019-04-14T15:23:24.061Z,7.56
2019-04-14T15:25:40.862Z,7.59
2019-04-14T15:28:07.913Z,7.21
2019-04-14T15:30:34.955Z,7.12
2019-04-14T15:33:02.300Z,7.07
2019-04-14T15:35:29.644Z,7.15
2019-04-14T15:37:56.688Z,7.19
2019-04-14T15:40:24.048Z,7.24
2019-04-14T15:42:51.092Z,7.16
2019-04-14T15:45:19.471Z,7.28
2019-04-14T15:47:46.507Z,7.37
2019-04-14T15:50:13.557Z,7.42
2019-04-14T15:52:41.666Z,7.25
2019-04-14T15:55:08.712Z,7.19
2019-04-14T15:57:36.038Z,7.15
2019-04-14T16:00:03.095Z,7.14
2019-04-14T16:02:31.207Z,7.00
2019-04-14T16:04:58.619Z,6.76
2019-04-14T16:07:25.995Z,6.61
2019-04-14T16:09:53.052Z,6.62
2019-04-14T16:12:20.380Z,6.66
2019-04-14T16:14:47.502Z,6.59
2019-04-14T16:17:14.883Z,6.33
2019-04-14T16:19:42.340Z,6.23
2019-04-14T16:22:09.695Z,6.22
2019-04-14T16:24:37.068Z,6.09
2019-04-14T16:27:05.187Z,6.21
2019-04-14T16:29:32.599Z,6.25
2019-04-14T16:31:59.940Z,6.23
2019-04-14T16:34:27.291Z,6.02
2019-04-14T16:36:54.748Z,5.87
2019-04-14T16:39:22.058Z,5.76
2019-04-14T16:41:49.160Z,5.75
2019-04-14T16:44:16.191Z,5.71
2019-04-14T16:46:43.249Z,5.65
2019-04-14T16:49:10.455Z,5.66
2019-04-14T16:51:37.506Z,5.67
2019-04-14T16:54:05.523Z,5.80
2019-04-14T16:56:32.579Z,5.65
2019-04-14T16:58:59.919Z,5.63
2019-04-14T17:01:26.970Z,5.59
2019-04-14T17:03:54.446Z,5.54
2019-04-14T17:06:21.753Z,5.52
2019-04-14T17:08:49.135Z,5.52
2019-04-14T17:11:16.505Z,5.51
2019-04-14T17:13:43.987Z,5.46
2019-04-14T17:16:11.305Z,5.43
2019-04-14T17:18:38.757Z,5.38
2019-04-14T17:21:05.805Z,5.29
2019-04-14T17:23:33.015Z,5.19
2019-04-14T17:26:00.413Z,5.10
2019-04-14T17:28:27.784Z,4.98
2019-04-14T17:30:54.920Z,4.93
2019-04-14T17:33:21.959Z,4.84
2019-04-14T17:35:49.081Z,4.77
2019-04-14T17:38:16.113Z,4.72
2019-04-14T17:40:43.525Z,4.67
2019-04-14T17:43:10.879Z,4.60
2019-04-14T17:45:38.251Z,4.50
2019-04-14T17:48:05.530Z,4.43
2019-04-14T17:50:40.699Z,4.35
2019-04-14T17:53:01.950Z,4.30
2019-04-14T17:55:29.385Z,4.26
2019-04-14T17:57:56.528Z,4.21
2019-04-14T18:00:23.556Z,4.16
2019-04-14T18:02:50.606Z,4.13
2019-04-14T18:05:17.969Z,4.08
2019-04-14T18:07:45.093Z,4.07
2019-04-14T18:10:12.133Z,4.05
2019-04-14T18:12:39.177Z,3.98
2019-04-14T18:15:06.495Z,3.89
2019-04-14T18:17:33.546Z,3.83
2019-04-14T18:20:00.577Z,3.76
2019-04-14T18:22:27.704Z,3.69
2019-04-14T18:24:55.095Z,3.65
2019-04-14T18:27:22.446Z,3.59
2019-04-14T18:29:49.819Z,3.58
2019-04-14T18:32:16.872Z,3.58
2019-04-14T18:34:43.906Z,3.55
2019-04-14T18:37:11.196Z,3.54
2019-04-14T18:39:39.205Z,3.57
2019-04-14T18:42:06.252Z,3.58
2019-04-14T18:44:34.270Z,3.54
2019-04-14T18:47:02.390Z,3.52
2019-04-14T18:49:29.423Z,3.43
2019-04-14T18:51:56.473Z,3.38
2019-04-14T18:54:24.649Z,3.32
2019-04-14T18:56:51.958Z,3.33
2019-04-14T18:59:19.001Z,3.31
2019-04-14T19:01:46.059Z,3.26
2019-04-14T19:04:13.103Z,3.20
2019-04-14T19:06:40.132Z,3.12
2019-04-14T19:09:07.481Z,3.00
2019-04-14T19:11:36.143Z,2.90
2019-04-14T19:14:03.204Z,2.79
2019-04-14T19:16:39.354Z,2.68
2019-04-14T19:18:59.259Z,2.58
2019-04-14T19:21:26.299Z,2.55
2019-04-14T19:23:53.666Z,2.57
2019-04-14T19:26:20.709Z,2.48
2019-04-14T19:28:48.084Z,2.44
2019-04-14T19:31:15.135Z,2.46
2019-04-14T19:33:42.180Z,2.39
2019-04-14T19:36:09.517Z,2.29
2019-04-14T19:38:36.564Z,2.22
2019-04-14T19:41:03.605Z,2.15
2019-04-14T19:43:30.965Z,2.11
2019-04-14T19:45:58.322Z,2.08
2019-04-14T19:48:25.678Z,2.07
2019-04-14T19:50:52.714Z,2.00
2019-04-14T19:53:19.775Z,1.96
2019-04-14T19:55:46.813Z,1.96
2019-04-14T19:58:14.124Z,1.94
2019-04-14T20:00:41.155Z,1.91
2019-04-14T20:03:08.203Z,1.91
2019-04-14T20:05:35.540Z,1.90
2019-04-14T20:08:02.633Z,1.91
2019-04-14T20:10:30.054Z,1.93
2019-04-14T20:12:58.510Z,1.87
2019-04-14T20:18:14.622Z,1.96
2019-04-14T20:20:41.659Z,1.88
2019-04-14T20:23:08.799Z,1.86
2019-04-14T20:25:35.835Z,1.79
2019-04-14T20:28:02.876Z,1.72
2019-04-14T20:30:30.284Z,1.75
2019-04-14T20:32:57.322Z,1.83
2019-04-14T20:35:24.378Z,1.82
2019-04-14T20:37:51.418Z,1.73
2019-04-14T20:40:18.771Z,1.62
2019-04-14T20:42:46.130Z,1.53
2019-04-14T20:45:13.183Z,1.49
2019-04-14T20:47:40.532Z,1.48
2019-04-14T20:50:07.588Z,1.42
2019-04-14T20:52:34.625Z,1.38
2019-04-14T20:55:01.984Z,1.34
2019-04-14T20:57:29.190Z,1.33
2019-04-14T20:59:56.247Z,1.31
2019-04-14T21:02:23.288Z,1.31
2019-04-14T21:04:50.686Z,1.29
2019-04-14T21:07:17.723Z,1.29
2019-04-14T21:09:44.783Z,1.22
2019-04-14T21:12:11.825Z,1.16
2019-04-14T21:14:38.877Z,1.12
2019-04-14T21:17:05.916Z,1.07
2019-04-14T21:19:33.281Z,1.04
2019-04-14T21:22:00.314Z,0.98
2019-04-14T21:24:27.372Z,0.98
2019-04-14T21:26:54.422Z,0.95
2019-04-14T21:29:21.475Z,0.93
2019-04-14T21:31:48.846Z,0.93
2019-04-14T21:34:15.900Z,0.92
2019-04-14T21:36:43.250Z,0.91
2019-04-14T21:39:10.585Z,0.88
2019-04-14T21:41:39.612Z,0.87
2019-04-14T21:44:06.652Z,0.88
2019-04-14T21:46:33.935Z,0.86
2019-04-14T21:49:00.975Z,0.81
2019-04-14T21:51:28.279Z,0.82
2019-04-14T21:53:55.564Z,0.79
2019-04-14T21:56:22.641Z,0.72
2019-04-14T21:58:49.686Z,0.66
2019-04-14T22:01:16.735Z,0.61
2019-04-14T22:03:44.134Z,0.58
2019-04-14T22:06:11.491Z,0.56
2019-04-14T22:08:38.841Z,0.52
2019-04-14T22:11:05.900Z,0.52
2019-04-14T22:13:33.251Z,0.53
2019-04-14T22:16:00.602Z,0.53
2019-04-14T22:18:27.647Z,0.54
2019-04-14T22:20:54.698Z,0.51
2019-04-14T22:23:21.743Z,0.49
2019-04-14T22:25:49.102Z,0.47
2019-04-14T22:28:16.463Z,0.46
2019-04-14T22:30:43.507Z,0.44
2019-04-14T22:33:10.548Z,0.46
2019-04-14T22:35:37.605Z,0.50
2019-04-14T22:38:04.974Z,0.48
2019-04-14T22:40:32.031Z,0.46
2019-04-14T22:42:59.068Z,0.45
2019-04-14T22:45:26.122Z,0.45
2019-04-14T22:47:53.173Z,0.45
2019-04-14T22:50:20.501Z,0.45
2019-04-14T22:52:47.803Z,0.42
2019-04-14T22:55:15.106Z,0.39
2019-04-14T22:57:42.158Z,0.38
2019-04-14T23:00:09.432Z,0.39
2019-04-14T23:02:38.101Z,0.40
2019-04-14T23:05:05.247Z,0.39
2019-04-14T23:07:32.536Z,0.40
2019-04-14T23:09:59.823Z,0.38
2019-04-14T23:12:27.206Z,0.37
2019-04-14T23:14:54.246Z,0.39
2019-04-14T23:17:21.559Z,0.44
2019-04-14T23:19:48.881Z,0.49
2019-04-14T23:22:16.234Z,0.53
2019-04-14T23:24:43.511Z,0.58
2019-04-14T23:27:10.948Z,0.66
2019-04-14T23:29:37.993Z,0.69
2019-04-14T23:32:05.351Z,0.71
2019-04-14T23:34:32.649Z,0.68
2019-04-14T23:36:59.700Z,0.68
2019-04-14T23:39:28.123Z,0.68
2019-04-14T23:41:55.413Z,0.70
2019-04-14T23:44:22.738Z,0.70
2019-04-14T23:46:50.894Z,0.67
2019-04-14T23:49:18.177Z,0.67
2019-04-14T23:51:45.480Z,0.69
2019-04-14T23:54:12.514Z,0.72
2019-04-14T23:56:39.569Z,0.75
2019-04-14T23:59:06.601Z,0.81
